Time;durP1;ratioP1;P1;durP2;ratioP2;P2;SDS_P1;SDS_P2;PMS_P1;PMS_P2;Temp;Humidity;BMP_temperature;BMP_pressure;BME280_temperature;BME280_humidity;BME280_pressure;Samples;Min_cycle;Max_cycle;Signal;HPM_P1;HPM_P2
2023/10/29 00:00:22;;;;;;;7.63;6.43;;;;;;;;;;6151724;23;20018;-73
2023/10/29 00:02:48;;;;;;;5.90;5.38;;;;;;;;;;6101524;23;20021;-73
2023/10/29 00:05:14;;;;;;;4.40;4.10;;;;;;;;;;6151669;23;20101;-74
2023/10/29 00:07:41;;;;;;;4.95;4.65;;;;;;;;;;6126189;23;20017;-74
2023/10/29 00:10:07;;;;;;;6.80;5.97;;;;;;;;;;6126074;23;20031;-75
2023/10/29 00:12:33;;;;;;;6.78;6.13;;;;;;;;;;6151845;23;20073;-73
2023/10/29 00:14:59;;;;;;;7.13;6.57;;;;;;;;;;6125960;23;20823;-74
2023/10/29 00:17:25;;;;;;;8.55;7.85;;;;;;;;;;6125447;23;20469;-75
2023/10/29 00:19:53;;;;;;;7.70;6.88;;;;;;;;;;6151909;23;20016;-74
2023/10/29 00:22:19;;;;;;;5.18;4.78;;;;;;;;;;6125556;23;20064;-74
2023/10/29 00:24:45;;;;;;;7.63;5.95;;;;;;;;;;6151897;23;20013;-74
2023/10/29 00:27:12;;;;;;;6.18;5.65;;;;;;;;;;6151805;23;20023;-74
2023/10/29 00:29:38;;;;;;;7.88;7.10;;;;;;;;;;6152951;23;20056;-74
2023/10/29 00:32:04;;;;;;;6.35;5.82;;;;;;;;;;6126401;23;20019;-74
2023/10/29 00:34:30;;;;;;;6.30;5.80;;;;;;;;;;6152057;23;20013;-74
2023/10/29 00:36:56;;;;;;;7.03;6.38;;;;;;;;;;6153822;23;20160;-74
2023/10/29 00:39:23;;;;;;;6.50;5.90;;;;;;;;;;6127366;23;20485;-74
2023/10/29 00:41:49;;;;;;;4.68;4.30;;;;;;;;;;6153666;23;20018;-74
2023/10/29 00:44:15;;;;;;;6.00;5.60;;;;;;;;;;6153661;23;20013;-74
2023/10/29 00:46:42;;;;;;;5.20;4.80;;;;;;;;;;6153764;23;20052;-76
2023/10/29 00:49:08;;;;;;;4.30;4.03;;;;;;;;;;6079604;23;20017;-73
2023/10/29 00:51:34;;;;;;;4.22;3.92;;;;;;;;;;6103271;23;20109;-72
2023/10/29 00:54:00;;;;;;;3.72;3.53;;;;;;;;;;6127974;23;20076;-73
2023/10/29 00:56:27;;;;;;;5.00;4.63;;;;;;;;;;6127362;23;20065;-73
2023/10/29 00:58:53;;;;;;;4.55;4.25;;;;;;;;;;6153529;23;20089;-72
2023/10/29 01:01:20;;;;;;;7.53;5.00;;;;;;;;;;6153055;23;20059;-72
2023/10/29 01:03:46;;;;;;;4.05;3.75;;;;;;;;;;6153539;23;20021;-73
2023/10/29 01:06:12;;;;;;;4.78;4.47;;;;;;;;;;6153224;23;20025;-73
2023/10/29 01:08:39;;;;;;;7.13;6.57;;;;;;;;;;6127210;23;20071;-72
2023/10/29 01:11:07;;;;;;;3.05;2.85;;;;;;;;;;6127469;23;20009;-72
2023/10/29 01:13:33;;;;;;;3.65;3.35;;;;;;;;;;6126929;23;20429;-73
2023/10/29 01:15:59;;;;;;;3.88;3.58;;;;;;;;;;6153304;23;20045;-74
2023/10/29 01:18:25;;;;;;;5.45;5.15;;;;;;;;;;6153224;23;20013;-74
2023/10/29 01:20:51;;;;;;;7.18;6.68;;;;;;;;;;6102811;23;20104;-74
2023/10/29 01:23:17;;;;;;;4.72;4.32;;;;;;;;;;6153185;23;20048;-75
2023/10/29 01:25:44;;;;;;;4.70;4.40;;;;;;;;;;6153255;23;20010;-74
2023/10/29 01:28:10;;;;;;;4.20;3.92;;;;;;;;;;6127539;23;20023;-74
2023/10/29 01:30:36;;;;;;;5.18;4.78;;;;;;;;;;6152844;23;20068;-74
2023/10/29 01:33:03;;;;;;;4.60;4.30;;;;;;;;;;6128296;23;20052;-74
2023/10/29 01:35:29;;;;;;;4.53;4.15;;;;;;;;;;6154615;23;20446;-72
2023/10/29 01:37:55;;;;;;;4.30;3.95;;;;;;;;;;6127501;23;20013;-72
2023/10/29 01:40:21;;;;;;;3.90;3.70;;;;;;;;;;6152978;23;20366;-72
2023/10/29 01:42:48;;;;;;;4.50;4.20;;;;;;;;;;6127065;23;20057;-73
2023/10/29 01:45:16;;;;;;;5.47;5.07;;;;;;;;;;6126991;23;20032;-72
2023/10/29 01:47:42;;;;;;;5.53;5.13;;;;;;;;;;6126445;23;20018;-71
2023/10/29 01:50:09;;;;;;;4.40;4.05;;;;;;;;;;6152953;23;20029;-73
2023/10/29 01:52:38;;;;;;;5.30;4.90;;;;;;;;;;6153046;23;20458;-72
2023/10/29 01:55:07;;;;;;;3.85;3.55;;;;;;;;;;6153063;23;20446;-71
2023/10/29 01:57:34;;;;;;;4.43;4.13;;;;;;;;;;6152679;23;20017;-72
2023/10/29 02:00:00;;;;;;;2.70;2.60;;;;;;;;;;6102684;23;20017;-72
2023/10/29 02:02:26;;;;;;;3.03;2.92;;;;;;;;;;6152801;23;20500;-73
2023/10/29 02:04:52;;;;;;;2.15;2.05;;;;;;;;;;6153634;23;20009;-74
2023/10/29 02:07:18;;;;;;;3.25;3.05;;;;;;;;;;6127329;23;20014;-72
2023/10/29 02:09:44;;;;;;;2.92;2.72;;;;;;;;;;6153336;23;20014;-72
2023/10/29 02:12:10;;;;;;;3.58;3.33;;;;;;;;;;6152747;23;20025;-72
2023/10/29 02:14:36;;;;;;;3.53;3.33;;;;;;;;;;6102342;23;20024;-72
2023/10/29 02:17:02;;;;;;;4.47;4.18;;;;;;;;;;6152768;23;20029;-73
2023/10/29 02:19:28;;;;;;;2.40;2.30;;;;;;;;;;6152660;23;20466;-72
2023/10/29 02:21:54;;;;;;;2.83;2.65;;;;;;;;;;6126621;23;20096;-72
2023/10/29 02:24:20;;;;;;;3.15;2.95;;;;;;;;;;6153517;23;20041;-72
2023/10/29 02:26:46;;;;;;;3.03;2.83;;;;;;;;;;6102682;23;20009;-72
2023/10/29 02:29:12;;;;;;;2.55;2.35;;;;;;;;;;6152873;23;20076;-72
2023/10/29 02:31:38;;;;;;;2.55;2.45;;;;;;;;;;6126774;23;20450;-73
2023/10/29 02:34:04;;;;;;;3.05;2.63;;;;;;;;;;6154279;23;20017;-72
2023/10/29 02:36:31;;;;;;;2.53;2.42;;;;;;;;;;6103712;23;20010;-72
2023/10/29 02:38:57;;;;;;;2.60;2.50;;;;;;;;;;6154866;23;20442;-72
2023/10/29 02:41:24;;;;;;;2.15;2.05;;;;;;;;;;6153396;23;20009;-72
2023/10/29 02:43:49;;;;;;;3.45;3.22;;;;;;;;;;6127889;23;20025;-72
2023/10/29 02:46:16;;;;;;;3.00;2.80;;;;;;;;;;6153609;23;20013;-72
2023/10/29 02:48:42;;;;;;;3.72;3.47;;;;;;;;;;6152865;23;20531;-73
2023/10/29 02:51:11;;;;;;;3.20;2.97;;;;;;;;;;6153193;23;20448;-73
2023/10/29 02:53:39;;;;;;;3.45;3.25;;;;;;;;;;6103027;23;20088;-72
2023/10/29 02:56:06;;;;;;;3.33;3.03;;;;;;;;;;6153492;23;20521;-72
2023/10/29 02:58:32;;;;;;;3.10;2.90;;;;;;;;;;6127423;23;20040;-72
2023/10/29 03:01:08;;;;;;;3.13;2.92;;;;;;;;;;6153743;23;20040;-72
2023/10/29 03:03:35;;;;;;;3.85;2.38;;;;;;;;;;6153363;23;20100;-72
2023/10/29 03:06:05;;;;;;;3.85;3.65;;;;;;;;;;6152594;23;20490;-72
2023/10/29 03:08:31;;;;;;;2.97;2.78;;;;;;;;;;6152252;23;20017;-73
2023/10/29 03:10:57;;;;;;;3.53;3.33;;;;;;;;;;6152148;23;20462;-72
2023/10/29 03:13:23;;;;;;;2.40;2.30;;;;;;;;;;6126413;23;20009;-71
2023/10/29 03:15:49;;;;;;;2.50;2.40;;;;;;;;;;6126290;23;20019;-71
2023/10/29 03:18:15;;;;;;;2.90;2.70;;;;;;;;;;6126306;23;20043;-72
2023/10/29 03:20:42;;;;;;;3.10;2.90;;;;;;;;;;6125966;23;20017;-72
2023/10/29 03:23:08;;;;;;;2.67;2.58;;;;;;;;;;6152157;23;20061;-73
2023/10/29 03:25:34;;;;;;;3.08;2.88;;;;;;;;;;6151866;23;20009;-72
2023/10/29 03:28:00;;;;;;;3.08;2.88;;;;;;;;;;6152346;23;20536;-73
2023/10/29 03:30:26;;;;;;;2.67;2.58;;;;;;;;;;6102149;23;20037;-72
2023/10/29 03:32:52;;;;;;;2.20;2.10;;;;;;;;;;6126160;23;20576;-72
2023/10/29 03:35:18;;;;;;;2.63;2.40;;;;;;;;;;6077858;23;20144;-72
2023/10/29 03:37:45;;;;;;;3.13;2.83;;;;;;;;;;6125632;23;20018;-72
2023/10/29 03:40:11;;;;;;;2.40;2.30;;;;;;;;;;6151919;23;20020;-72
2023/10/29 03:42:37;;;;;;;2.45;2.35;;;;;;;;;;6125518;23;20137;-72
2023/10/29 03:45:03;;;;;;;2.65;2.55;;;;;;;;;;6126221;23;20096;-72
2023/10/29 03:47:30;;;;;;;2.50;2.33;;;;;;;;;;6125417;23;20013;-72
2023/10/29 03:49:56;;;;;;;2.25;2.15;;;;;;;;;;6151935;23;20096;-71
2023/10/29 03:52:22;;;;;;;2.53;2.42;;;;;;;;;;6151810;23;20068;-72
2023/10/29 03:54:48;;;;;;;2.72;2.63;;;;;;;;;;6151912;23;20442;-71
2023/10/29 03:57:14;;;;;;;3.55;2.53;;;;;;;;;;6151612;23;20013;-72
2023/10/29 03:59:40;;;;;;;3.20;2.90;;;;;;;;;;6151687;23;20537;-72
2023/10/29 04:02:06;;;;;;;2.60;2.50;;;;;;;;;;6151732;23;20589;-73
2023/10/29 04:04:33;;;;;;;2.60;2.50;;;;;;;;;;6151812;23;20024;-72
2023/10/29 04:06:59;;;;;;;2.70;2.60;;;;;;;;;;6151828;23;20009;-71
2023/10/29 04:09:24;;;;;;;2.97;2.78;;;;;;;;;;6152501;23;20010;-71
2023/10/29 04:11:51;;;;;;;3.13;2.92;;;;;;;;;;6127697;23;20024;-72
2023/10/29 04:14:16;;;;;;;3.03;2.83;;;;;;;;;;6154114;23;20005;-71
2023/10/29 04:16:42;;;;;;;3.40;3.20;;;;;;;;;;6127686;23;20340;-71
2023/10/29 04:19:08;;;;;;;2.28;2.17;;;;;;;;;;6154048;23;20020;-71
2023/10/29 04:21:34;;;;;;;3.47;3.25;;;;;;;;;;6153690;23;20025;-74
2023/10/29 04:24:00;;;;;;;4.03;3.80;;;;;;;;;;6155136;23;20049;-71
2023/10/29 04:26:26;;;;;;;3.22;3.03;;;;;;;;;;6154105;23;20036;-71
2023/10/29 04:28:52;;;;;;;3.30;3.10;;;;;;;;;;6153636;23;20014;-72
2023/10/29 04:31:18;;;;;;;2.75;2.65;;;;;;;;;;6153179;23;20013;-72
2023/10/29 04:33:48;;;;;;;3.05;2.60;;;;;;;;;;6153667;23;20669;-70
2023/10/29 04:36:18;;;;;;;3.83;3.53;;;;;;;;;;6154213;23;20018;-70
2023/10/29 04:38:44;;;;;;;4.13;3.92;;;;;;;;;;6153727;23;20009;-70
2023/10/29 04:41:10;;;;;;;2.75;2.55;;;;;;;;;;6153612;23;20473;-71
2023/10/29 04:43:36;;;;;;;2.65;2.55;;;;;;;;;;6154544;23;20049;-72
2023/10/29 04:46:03;;;;;;;2.50;2.38;;;;;;;;;;6156331;23;20014;-70
2023/10/29 04:48:29;;;;;;;4.40;2.70;;;;;;;;;;6132397;23;20013;-70
2023/10/29 04:50:55;;;;;;;2.78;2.67;;;;;;;;;;6158059;23;20044;-70
2023/10/29 04:53:21;;;;;;;2.35;2.25;;;;;;;;;;6156703;23;20024;-71
2023/10/29 04:55:47;;;;;;;3.33;3.13;;;;;;;;;;6154933;23;20088;-71
2023/10/29 04:58:13;;;;;;;3.75;3.45;;;;;;;;;;6153910;23;20474;-71
2023/10/29 05:00:39;;;;;;;4.60;4.30;;;;;;;;;;6103640;23;20017;-70
2023/10/29 05:03:05;;;;;;;3.13;3.00;;;;;;;;;;6154433;23;20025;-71
2023/10/29 05:05:31;;;;;;;5.35;5.05;;;;;;;;;;6127443;23;20037;-72
2023/10/29 05:07:57;;;;;;;2.70;2.55;;;;;;;;;;6154224;23;20017;-71
2023/10/29 05:10:25;;;;;;;4.15;3.50;;;;;;;;;;6153239;23;20015;-71
2023/10/29 05:12:51;;;;;;;3.28;3.08;;;;;;;;;;6153259;23;20017;-71
2023/10/29 05:15:17;;;;;;;4.85;4.35;;;;;;;;;;6103071;23;20020;-71
2023/10/29 05:17:43;;;;;;;2.88;2.67;;;;;;;;;;6153096;23;20014;-71
2023/10/29 05:20:10;;;;;;;2.72;2.63;;;;;;;;;;6153869;23;20048;-70
2023/10/29 05:22:36;;;;;;;4.32;4.13;;;;;;;;;;6153425;23;20025;-70
2023/10/29 05:25:03;;;;;;;2.47;2.38;;;;;;;;;;6153520;23;20024;-70
2023/10/29 05:27:30;;;;;;;3.75;3.55;;;;;;;;;;6153584;23;20018;-70
2023/10/29 05:29:57;;;;;;;3.10;2.97;;;;;;;;;;6126966;23;20044;-70
2023/10/29 05:32:23;;;;;;;4.43;4.15;;;;;;;;;;6152686;23;20053;-71
2023/10/29 05:34:49;;;;;;;5.05;4.75;;;;;;;;;;6126663;23;20060;-70
2023/10/29 05:37:15;;;;;;;1.63;1.63;;;;;;;;;;6153089;23;20064;-70
2023/10/29 05:39:41;;;;;;;2.95;2.85;;;;;;;;;;6153184;23;20362;-71
2023/10/29 05:42:07;;;;;;;5.68;3.80;;;;;;;;;;6127475;23;20072;-71
2023/10/29 05:44:33;;;;;;;3.45;3.25;;;;;;;;;;6154320;23;20013;-73
2023/10/29 05:46:59;;;;;;;3.95;3.65;;;;;;;;;;6131862;23;20354;-73
2023/10/29 05:49:25;;;;;;;4.55;4.13;;;;;;;;;;6155059;23;20013;-70
2023/10/29 05:51:51;;;;;;;3.33;3.10;;;;;;;;;;6153555;23;20044;-70
2023/10/29 05:54:18;;;;;;;3.33;3.13;;;;;;;;;;6161328;23;20039;-72
2023/10/29 05:56:45;;;;;;;4.93;4.57;;;;;;;;;;6170445;23;20085;-74
2023/10/29 05:59:12;;;;;;;4.53;4.18;;;;;;;;;;6136405;23;20009;-75
2023/10/29 06:01:38;;;;;;;3.88;3.67;;;;;;;;;;6137520;23;20032;-74
2023/10/29 06:04:05;;;;;;;5.63;5.18;;;;;;;;;;6158454;23;20077;-75
2023/10/29 06:06:31;;;;;;;5.03;4.60;;;;;;;;;;6150045;23;20064;-74
2023/10/29 06:08:57;;;;;;;4.55;4.25;;;;;;;;;;6152301;23;20017;-74
2023/10/29 06:11:24;;;;;;;3.40;3.20;;;;;;;;;;6152376;23;20014;-75
2023/10/29 06:13:53;;;;;;;4.82;3.63;;;;;;;;;;6152496;23;20016;-74
2023/10/29 06:16:18;;;;;;;8.07;6.40;;;;;;;;;;6126248;23;20013;-74
2023/10/29 06:18:44;;;;;;;6.55;6.05;;;;;;;;;;6125979;23;20020;-74
2023/10/29 06:21:10;;;;;;;5.82;5.35;;;;;;;;;;6152105;23;20013;-76
2023/10/29 06:23:36;;;;;;;7.50;6.25;;;;;;;;;;6151876;23;20505;-74
2023/10/29 06:26:06;;;;;;;8.15;7.10;;;;;;;;;;6152324;23;20021;-74
2023/10/29 06:28:33;;;;;;;4.28;3.97;;;;;;;;;;6153811;23;20013;-75
2023/10/29 06:30:59;;;;;;;4.78;4.43;;;;;;;;;;6154565;23;20013;-76
2023/10/29 06:33:25;;;;;;;3.80;3.47;;;;;;;;;;6101920;23;20017;-73
2023/10/29 06:36:02;;;;;;;6.65;6.05;;;;;;;;;;6128156;23;20009;-74
2023/10/29 06:38:28;;;;;;;3.53;3.33;;;;;;;;;;6077851;23;20020;-74
2023/10/29 06:40:54;;;;;;;3.58;3.38;;;;;;;;;;6154088;23;20010;-73
2023/10/29 06:43:20;;;;;;;3.83;3.63;;;;;;;;;;6128510;23;20036;-75
2023/10/29 06:45:46;;;;;;;2.83;2.63;;;;;;;;;;6155231;23;20080;-75
2023/10/29 06:48:12;;;;;;;7.35;6.75;;;;;;;;;;6128869;23;20024;-72
2023/10/29 06:50:38;;;;;;;4.95;4.55;;;;;;;;;;6152303;23;20009;-73
2023/10/29 06:53:05;;;;;;;7.57;6.97;;;;;;;;;;6151552;23;20009;-73
2023/10/29 06:55:31;;;;;;;8.35;7.75;;;;;;;;;;6125770;23;20020;-74
2023/10/29 06:57:57;;;;;;;6.70;6.20;;;;;;;;;;6151246;23;20014;-74
2023/10/29 07:00:23;;;;;;;5.63;5.22;;;;;;;;;;6151694;23;20013;-73
2023/10/29 07:02:50;;;;;;;7.00;6.43;;;;;;;;;;6151382;23;20104;-73
2023/10/29 07:05:16;;;;;;;7.35;6.75;;;;;;;;;;6151522;23;20017;-74
2023/10/29 07:07:42;;;;;;;6.93;6.32;;;;;;;;;;6125293;23;20136;-74
2023/10/29 07:10:08;;;;;;;7.30;6.75;;;;;;;;;;6151897;23;20030;-75
2023/10/29 07:12:34;;;;;;;8.25;6.18;;;;;;;;;;6151026;23;20107;-74
2023/10/29 07:15:01;;;;;;;6.65;6.10;;;;;;;;;;6125772;23;20044;-74
2023/10/29 07:17:27;;;;;;;5.88;5.47;;;;;;;;;;6127595;23;20425;-73
2023/10/29 07:19:54;;;;;;;4.97;4.53;;;;;;;;;;6077692;23;20013;-73
2023/10/29 07:22:20;;;;;;;5.22;4.93;;;;;;;;;;6151296;23;20013;-73
2023/10/29 07:24:45;;;;;;;7.85;7.15;;;;;;;;;;6125324;23;20020;-76
2023/10/29 07:27:11;;;;;;;6.72;6.10;;;;;;;;;;6101046;23;20041;-74
2023/10/29 07:29:37;;;;;;;10.02;7.72;;;;;;;;;;6124649;23;20072;-75
2023/10/29 07:32:04;;;;;;;10.30;9.43;;;;;;;;;;6100627;23;20021;-77
2023/10/29 07:34:29;;;;;;;6.63;6.10;;;;;;;;;;6150466;23;20024;-74
2023/10/29 07:36:55;;;;;;;4.13;3.83;;;;;;;;;;6150806;23;20052;-74
2023/10/29 07:39:21;;;;;;;4.68;4.38;;;;;;;;;;6124909;23;20036;-74
2023/10/29 07:41:47;;;;;;;5.65;5.05;;;;;;;;;;6151082;23;20017;-75
2023/10/29 07:44:13;;;;;;;4.63;4.20;;;;;;;;;;6124912;23;20673;-74
2023/10/29 07:46:39;;;;;;;5.80;5.35;;;;;;;;;;6151022;23;20017;-74
2023/10/29 07:49:05;;;;;;;7.78;7.07;;;;;;;;;;6125314;23;20013;-74
2023/10/29 07:51:31;;;;;;;7.95;6.50;;;;;;;;;;6151051;23;20041;-73
2023/10/29 07:53:57;;;;;;;5.38;4.40;;;;;;;;;;6124348;23;20374;-75
2023/10/29 07:56:23;;;;;;;3.78;3.58;;;;;;;;;;6125264;23;20052;-75
2023/10/29 07:58:49;;;;;;;4.88;4.47;;;;;;;;;;6125062;23;20017;-81
2023/10/29 08:01:16;;;;;;;3.75;3.55;;;;;;;;;;6151020;23;20032;-78
2023/10/29 08:03:42;;;;;;;7.55;6.18;;;;;;;;;;6149969;23;20134;-76
2023/10/29 08:06:14;;;;;;;5.15;4.75;;;;;;;;;;6100737;23;20006;-76
2023/10/29 08:08:45;;;;;;;7.35;6.75;;;;;;;;;;6102825;23;20089;-76
2023/10/29 08:11:18;;;;;;;5.45;5.05;;;;;;;;;;6151299;23;20096;-78
2023/10/29 08:13:44;;;;;;;4.57;4.18;;;;;;;;;;6151630;23;20144;-77
2023/10/29 08:16:10;;;;;;;6.60;6.03;;;;;;;;;;6150779;23;20068;-78
2023/10/29 08:18:37;;;;;;;6.45;5.78;;;;;;;;;;6151584;23;20016;-76
2023/10/29 08:21:06;;;;;;;6.50;6.00;;;;;;;;;;6151307;23;20021;-76
2023/10/29 08:23:32;;;;;;;3.15;2.95;;;;;;;;;;6151162;23;20116;-77
2023/10/29 08:25:58;;;;;;;5.40;5.00;;;;;;;;;;6150872;23;20010;-77
2023/10/29 08:28:27;;;;;;;5.50;4.97;;;;;;;;;;6151647;23;20018;-77
2023/10/29 08:30:54;;;;;;;6.88;5.35;;;;;;;;;;6150576;23;20013;-78
2023/10/29 08:33:20;;;;;;;5.55;5.10;;;;;;;;;;6150733;23;20044;-78
2023/10/29 08:35:46;;;;;;;5.10;4.72;;;;;;;;;;6123939;23;20096;-77
2023/10/29 08:38:12;;;;;;;5.72;5.22;;;;;;;;;;6150925;23;20041;-77
2023/10/29 08:40:38;;;;;;;4.22;3.92;;;;;;;;;;6151254;23;20041;-76
2023/10/29 08:43:07;;;;;;;5.00;4.70;;;;;;;;;;6121744;23;20053;-74
2023/10/29 08:45:33;;;;;;;6.90;6.25;;;;;;;;;;6150818;23;20013;-75
2023/10/29 08:48:00;;;;;;;5.38;4.93;;;;;;;;;;6124474;23;20017;-76
2023/10/29 08:50:28;;;;;;;4.15;3.85;;;;;;;;;;6125012;23;20528;-78
2023/10/29 08:52:54;;;;;;;5.95;5.50;;;;;;;;;;6126272;23;20021;-78
2023/10/29 08:55:19;;;;;;;5.32;4.93;;;;;;;;;;6151650;23;20402;-77
2023/10/29 08:57:46;;;;;;;8.30;7.50;;;;;;;;;;6151992;23;20068;-79
2023/10/29 09:00:12;;;;;;;6.15;5.65;;;;;;;;;;6152500;23;20013;-75
2023/10/29 09:02:38;;;;;;;5.68;5.20;;;;;;;;;;6152858;23;20060;-75
2023/10/29 09:05:05;;;;;;;6.43;5.80;;;;;;;;;;6151958;23;20013;-75
2023/10/29 09:07:32;;;;;;;9.70;7.07;;;;;;;;;;6152483;23;20045;-75
2023/10/29 09:09:59;;;;;;;7.75;7.05;;;;;;;;;;6150004;23;20009;-74
2023/10/29 09:12:25;;;;;;;8.75;7.68;;;;;;;;;;6151240;23;20016;-78
2023/10/29 09:14:51;;;;;;;7.30;6.70;;;;;;;;;;6122142;23;20068;-77
2023/10/29 09:17:18;;;;;;;5.20;4.50;;;;;;;;;;6123707;23;20020;-76
2023/10/29 09:19:43;;;;;;;5.38;4.88;;;;;;;;;;6148868;23;20017;-78
2023/10/29 09:22:10;;;;;;;5.75;5.25;;;;;;;;;;6124997;23;20104;-76
2023/10/29 09:24:36;;;;;;;7.20;6.60;;;;;;;;;;6151412;23;20016;-75
2023/10/29 09:27:02;;;;;;;5.72;5.20;;;;;;;;;;6151265;23;20016;-77
2023/10/29 09:29:31;;;;;;;9.82;5.97;;;;;;;;;;6153461;23;20017;-76
2023/10/29 09:31:57;;;;;;;8.25;7.43;;;;;;;;;;6126973;23;20043;-76
2023/10/29 09:34:23;;;;;;;7.70;7.00;;;;;;;;;;6153401;23;20017;-76
2023/10/29 09:36:49;;;;;;;4.82;4.50;;;;;;;;;;6152781;23;20025;-76
2023/10/29 09:39:15;;;;;;;6.03;5.63;;;;;;;;;;6127036;23;20009;-76
2023/10/29 09:41:42;;;;;;;4.63;4.28;;;;;;;;;;6153124;23;20020;-77
2023/10/29 09:44:09;;;;;;;7.95;7.25;;;;;;;;;;6103151;23;20026;-77
2023/10/29 09:46:36;;;;;;;7.15;6.57;;;;;;;;;;6127146;23;20013;-77
2023/10/29 09:49:02;;;;;;;5.40;5.00;;;;;;;;;;6152896;23;20367;-77
2023/10/29 09:51:28;;;;;;;7.40;6.15;;;;;;;;;;6153245;23;20013;-77
2023/10/29 09:53:56;;;;;;;4.32;4.00;;;;;;;;;;6153204;23;20446;-77
2023/10/29 09:56:22;;;;;;;6.55;5.80;;;;;;;;;;6127854;23;20013;-77
2023/10/29 09:58:48;;;;;;;6.28;5.70;;;;;;;;;;6127098;23;20009;-77
2023/10/29 10:01:15;;;;;;;5.35;4.93;;;;;;;;;;6153658;23;20017;-77
2023/10/29 10:03:41;;;;;;;8.25;7.43;;;;;;;;;;6153008;23;20024;-77
2023/10/29 10:06:07;;;;;;;4.95;4.60;;;;;;;;;;6153327;23;20450;-77
2023/10/29 10:08:33;;;;;;;5.93;5.50;;;;;;;;;;6128287;23;20021;-77
2023/10/29 10:10:59;;;;;;;6.22;5.72;;;;;;;;;;6156190;23;20009;-76
2023/10/29 10:13:36;;;;;;;5.88;5.43;;;;;;;;;;6153050;23;20446;-77
2023/10/29 10:16:06;;;;;;;8.13;7.43;;;;;;;;;;6152789;23;20339;-77
2023/10/29 10:18:50;;;;;;;7.43;6.72;;;;;;;;;;6152911;23;20009;-77
2023/10/29 10:21:17;;;;;;;8.95;8.10;;;;;;;;;;6153415;23;20013;-76
2023/10/29 10:24:01;;;;;;;6.35;5.65;;;;;;;;;;6152838;23;20025;-77
2023/10/29 10:26:30;;;;;;;7.65;6.95;;;;;;;;;;6153060;23;20013;-77
2023/10/29 10:28:57;;;;;;;6.13;5.70;;;;;;;;;;6152558;23;20020;-77
2023/10/29 10:31:27;;;;;;;8.30;6.93;;;;;;;;;;6152398;23;20453;-78
2023/10/29 10:34:13;;;;;;;7.43;6.47;;;;;;;;;;6152347;23;20024;-77
2023/10/29 10:36:40;;;;;;;9.00;8.20;;;;;;;;;;6125055;23;20021;-77
2023/10/29 10:39:07;;;;;;;4.88;4.50;;;;;;;;;;6152439;23;20414;-76
2023/10/29 10:41:43;;;;;;;4.32;3.92;;;;;;;;;;6151386;23;20117;-77
2023/10/29 10:44:10;;;;;;;6.85;6.35;;;;;;;;;;6152301;23;20383;-77
2023/10/29 10:46:37;;;;;;;7.07;6.47;;;;;;;;;;6127126;23;20009;-75
2023/10/29 10:49:04;;;;;;;8.75;7.47;;;;;;;;;;6152338;23;20024;-76
2023/10/29 10:51:31;;;;;;;7.25;6.38;;;;;;;;;;6126304;23;20067;-77
2023/10/29 10:53:58;;;;;;;4.65;4.35;;;;;;;;;;6152144;23;20385;-76
2023/10/29 10:56:24;;;;;;;3.78;3.58;;;;;;;;;;6151669;23;20024;-77
2023/10/29 10:58:50;;;;;;;7.43;6.82;;;;;;;;;;6152172;23;20017;-77
2023/10/29 11:01:16;;;;;;;7.18;6.55;;;;;;;;;;6152626;23;20363;-76
2023/10/29 11:03:42;;;;;;;8.40;7.75;;;;;;;;;;6126348;23;20076;-78
2023/10/29 11:06:10;;;;;;;6.35;5.85;;;;;;;;;;6151620;23;20013;-78
2023/10/29 11:08:36;;;;;;;8.30;7.63;;;;;;;;;;6152067;23;20020;-77
2023/10/29 11:11:03;;;;;;;6.40;5.82;;;;;;;;;;6125955;23;20014;-77
2023/10/29 11:13:29;;;;;;;6.10;5.68;;;;;;;;;;6126946;23;20032;-79
2023/10/29 11:15:55;;;;;;;5.63;5.22;;;;;;;;;;6152378;23;20020;-76
2023/10/29 11:18:33;;;;;;;9.10;8.20;;;;;;;;;;6151414;23;20009;-76
2023/10/29 11:21:00;;;;;;;8.38;7.68;;;;;;;;;;6151943;23;20123;-77
2023/10/29 11:23:26;;;;;;;6.57;6.07;;;;;;;;;;6101778;23;20068;-78
2023/10/29 11:26:13;;;;;;;5.72;5.22;;;;;;;;;;6123258;23;20076;-79
2023/10/29 11:28:43;;;;;;;6.43;5.93;;;;;;;;;;6132374;23;20020;-78
2023/10/29 11:31:15;;;;;;;7.55;6.85;;;;;;;;;;6152658;23;20013;-78
2023/10/29 11:33:45;;;;;;;3.63;3.42;;;;;;;;;;6127599;23;20014;-76
2023/10/29 11:36:32;;;;;;;8.13;7.35;;;;;;;;;;6152569;23;20387;-76
2023/10/29 11:39:18;;;;;;;8.43;7.82;;;;;;;;;;6151250;23;20017;-77
2023/10/29 11:41:44;;;;;;;7.65;7.05;;;;;;;;;;6151560;23;20017;-79
2023/10/29 11:44:24;;;;;;;7.53;6.22;;;;;;;;;;6126425;23;20036;-78
2023/10/29 11:47:03;;;;;;;8.60;7.68;;;;;;;;;;6126426;23;20468;-78
2023/10/29 11:49:30;;;;;;;7.50;6.65;;;;;;;;;;6152323;23;20066;-79
2023/10/29 11:52:02;;;;;;;9.18;6.70;;;;;;;;;;6152363;23;20092;-78
2023/10/29 11:54:29;;;;;;;6.43;5.82;;;;;;;;;;6128387;23;20009;-80
2023/10/29 11:56:57;;;;;;;6.00;5.53;;;;;;;;;;6126060;23;20020;-79
2023/10/29 11:59:23;;;;;;;10.57;8.50;;;;;;;;;;6152329;23;20013;-79
2023/10/29 12:01:49;;;;;;;5.93;4.97;;;;;;;;;;6127615;23;20013;-79
2023/10/29 12:04:15;;;;;;;7.00;6.38;;;;;;;;;;6127731;23;20471;-80
2023/10/29 12:06:43;;;;;;;5.68;5.22;;;;;;;;;;6155839;23;20120;-79
2023/10/29 12:09:19;;;;;;;4.40;4.10;;;;;;;;;;6105814;23;20009;-78
2023/10/29 12:11:45;;;;;;;4.55;4.25;;;;;;;;;;6128272;23;20171;-78
2023/10/29 12:14:12;;;;;;;6.38;5.15;;;;;;;;;;6160934;23;20021;-79
2023/10/29 12:16:38;;;;;;;3.58;3.38;;;;;;;;;;6156639;23;20024;-78
2023/10/29 12:19:04;;;;;;;3.13;2.92;;;;;;;;;;6155701;23;20063;-80
2023/10/29 12:21:30;;;;;;;3.97;3.78;;;;;;;;;;6164384;23;20048;-80
2023/10/29 12:23:57;;;;;;;4.18;3.90;;;;;;;;;;6173415;23;20022;-79
2023/10/29 12:26:25;;;;;;;5.10;4.70;;;;;;;;;;6173256;23;20090;-79
2023/10/29 12:28:51;;;;;;;5.45;5.05;;;;;;;;;;6144028;23;20039;-79
2023/10/29 12:31:26;;;;;;;3.47;3.28;;;;;;;;;;6165868;23;20040;-78
2023/10/29 12:33:59;;;;;;;4.15;3.80;;;;;;;;;;6129893;23;20125;-79
2023/10/29 12:36:28;;;;;;;4.00;3.70;;;;;;;;;;6155008;23;20016;-79
2023/10/29 12:38:54;;;;;;;3.10;2.90;;;;;;;;;;6154793;23;20040;-79
2023/10/29 12:41:21;;;;;;;5.30;4.90;;;;;;;;;;6154897;23;20596;-77
2023/10/29 12:43:49;;;;;;;6.32;5.88;;;;;;;;;;6127553;23;20025;-78
2023/10/29 12:46:21;;;;;;;4.75;4.40;;;;;;;;;;6153700;23;20036;-78
2023/10/29 12:49:03;;;;;;;6.18;5.68;;;;;;;;;;6153340;23;20013;-78
2023/10/29 12:51:32;;;;;;;3.55;3.35;;;;;;;;;;6153792;23;20015;-78
2023/10/29 12:54:11;;;;;;;5.05;4.65;;;;;;;;;;6153466;23;20016;-78
2023/10/29 12:56:56;;;;;;;5.00;4.68;;;;;;;;;;6152304;23;20049;-78
2023/10/29 12:59:22;;;;;;;5.97;5.47;;;;;;;;;;6153967;23;20014;-79
2023/10/29 13:01:49;;;;;;;4.38;4.07;;;;;;;;;;6156381;23;20604;-78
2023/10/29 13:04:16;;;;;;;5.65;5.22;;;;;;;;;;6154776;23;20580;-78
2023/10/29 13:06:43;;;;;;;6.10;5.60;;;;;;;;;;6127731;23;20402;-78
2023/10/29 13:09:09;;;;;;;3.97;3.67;;;;;;;;;;6151709;23;20017;-78
2023/10/29 13:11:36;;;;;;;5.15;3.65;;;;;;;;;;6126867;23;20109;-78
2023/10/29 13:14:02;;;;;;;4.40;4.10;;;;;;;;;;6123415;23;20010;-77
2023/10/29 13:16:28;;;;;;;3.60;3.40;;;;;;;;;;6126051;23;20045;-77
2023/10/29 13:18:54;;;;;;;4.18;3.88;;;;;;;;;;6125909;23;20032;-77
2023/10/29 13:21:20;;;;;;;4.75;4.45;;;;;;;;;;6125391;23;20458;-76
2023/10/29 13:23:46;;;;;;;3.95;3.70;;;;;;;;;;6126785;23;20025;-77
2023/10/29 13:26:12;;;;;;;7.45;5.60;;;;;;;;;;6150908;23;20016;-77
2023/10/29 13:28:38;;;;;;;6.82;6.20;;;;;;;;;;6152804;23;20480;-76
2023/10/29 13:31:04;;;;;;;8.63;3.95;;;;;;;;;;6152830;23;20096;-77
2023/10/29 13:33:30;;;;;;;3.28;3.08;;;;;;;;;;6126733;23;20099;-77
2023/10/29 13:35:56;;;;;;;5.50;5.10;;;;;;;;;;6153408;23;20477;-75
2023/10/29 13:38:24;;;;;;;6.45;5.95;;;;;;;;;;6153250;23;20147;-76
2023/10/29 13:40:50;;;;;;;4.85;4.55;;;;;;;;;;6153049;23;20013;-75
2023/10/29 13:43:16;;;;;;;5.03;4.28;;;;;;;;;;6126092;23;20524;-76
2023/10/29 13:45:42;;;;;;;4.53;4.22;;;;;;;;;;6102546;23;20358;-75
2023/10/29 13:48:08;;;;;;;4.75;4.45;;;;;;;;;;6152045;23;20075;-77
2023/10/29 13:50:37;;;;;;;4.78;4.38;;;;;;;;;;6126612;23;20014;-75
2023/10/29 13:53:04;;;;;;;4.95;4.55;;;;;;;;;;6152989;23;20029;-76
2023/10/29 13:55:30;;;;;;;3.35;3.15;;;;;;;;;;6127889;23;20014;-77
2023/10/29 13:57:58;;;;;;;5.68;5.18;;;;;;;;;;6128896;23;20024;-76
2023/10/29 14:00:26;;;;;;;6.63;5.38;;;;;;;;;;6155347;23;20100;-74
2023/10/29 14:02:52;;;;;;;5.50;5.10;;;;;;;;;;6127212;23;20026;-77
2023/10/29 14:05:19;;;;;;;4.97;4.65;;;;;;;;;;6128804;23;20337;-75
2023/10/29 14:07:45;;;;;;;5.85;3.92;;;;;;;;;;6128134;23;20045;-75
2023/10/29 14:10:12;;;;;;;5.70;5.28;;;;;;;;;;6125323;23;20369;-76
2023/10/29 14:12:43;;;;;;;5.63;5.13;;;;;;;;;;6079197;23;20013;-79
2023/10/29 14:15:09;;;;;;;6.05;5.65;;;;;;;;;;6126177;23;20470;-80
2023/10/29 14:17:35;;;;;;;4.82;4.50;;;;;;;;;;6152455;23;20013;-79
2023/10/29 14:20:01;;;;;;;3.70;3.50;;;;;;;;;;6156141;23;20506;-77
2023/10/29 14:22:27;;;;;;;4.07;3.80;;;;;;;;;;6125332;23;20532;-77
2023/10/29 14:24:53;;;;;;;4.30;4.00;;;;;;;;;;6152147;23;20028;-78
2023/10/29 14:27:19;;;;;;;4.28;3.90;;;;;;;;;;6150117;23;20009;-77
2023/10/29 14:29:45;;;;;;;3.75;3.53;;;;;;;;;;6122881;23;20025;-78
2023/10/29 14:32:11;;;;;;;5.13;4.72;;;;;;;;;;6149057;23;20053;-76
2023/10/29 14:34:37;;;;;;;5.75;4.20;;;;;;;;;;6151233;23;20009;-76
2023/10/29 14:37:03;;;;;;;3.53;3.22;;;;;;;;;;6151676;23;20029;-77
2023/10/29 14:39:29;;;;;;;5.07;4.68;;;;;;;;;;6151794;23;20017;-77
2023/10/29 14:41:56;;;;;;;5.00;4.70;;;;;;;;;;6151327;23;20013;-77